x

Ilm2 - 5 Miles Se Of Wrightsville Beach, Nc (41038) Weather Station

9:08 - Mon 25th Jul 2016 All times are EDT. -4 hours from GMT.

  • Wind
    7mph, 9mph gusts
  • Sea Temp 83°f
  • Air Temp 82°f
  • Sea Pressure 1019.9mb
  • Ilm2 - 5 Miles Se Of Wrightsville Beach, Nc
  • Ilm2 - 5 Miles Se Of Wrightsville Beach, Nc

More Historic Weather Station data

Upgrade to MSW Pro to gain access to the past 30 days of data for over 8000 Wavebouys and Weather Stations around the globe.

Join Pro

Comparision Forecast

View Surf forecast
   
lun. 07/25 9:08 7 9 mph 1019.9mb 83f 82f
8:08 7 11 mph 1019.7mb 83f 82f
7:08 7 9 mph 1019.5mb 83f 82f
6:08 7 9 mph 1019.3mb 84f 82f
5:08 4 9 mph 1018.4mb 84f 82f
4:08 9 13 mph 1018.1mb 84f 83f
3:08 11 18 mph 1018.4mb 84f 83f
2:08 11 16 mph 1018.4mb 84f 83f
1:08 13 16 mph 1018.5mb 84f 83f
12:08 13 18 mph 1018.6mb 84f 84f
dim. 07/24 11:08 16 20 mph 1018.5mb 84f 84f
10:08 13 18 mph 1018.2mb 84f 84f
9:08 13 18 mph 1017.9mb 84f 84f
8:08 13 18 mph 1017.4mb 84f 84f
7:08 16 20 mph 1017.4mb 84f 85f
6:08 16 20 mph 1017.1mb 85f 85f
5:08 11 16 mph 1017.5mb 85f 85f
4:08 13 18 mph 1017.6mb 85f 85f
3:08 13 18 mph 1017.7mb 85f 85f
2:08 13 18 mph 1018.2mb 85f 85f
1:08 16 20 mph 1018.1mb 84f 85f
12:08 16 20 mph 1018.4mb 84f 84f
11:08 11 13 mph 1018.2mb 84f 84f
10:08 9 11 mph 1018.1mb 83f 84f
9:08 7 11 mph 1018mb 83f 84f
8:08 7 11 mph 1017.7mb 83f 83f
7:08 9 11 mph 1017.1mb 83f 83f
6:08 7 9 mph 1017.3mb 83f 83f
5:08 7 9 mph 1017.2mb 83f 83f
4:08 9 11 mph 1017.1mb 83f 83f
3:08 9 11 mph 1017.3mb 83f 83f
2:08 9 13 mph 1017.1mb 84f 83f
1:08 4 9 mph 1017.2mb 84f 82f
12:08 9 11 mph 1017mb 84f 83f
sam. 07/23 11:08 11 13 mph 1016.8mb 84f 83f
10:08 9 13 mph 1016.8mb 84f 84f
9:08 13 16 mph 1016.4mb 84f 84f
8:08 13 18 mph 1016.2mb 84f 84f
7:08 16 18 mph 1015.9mb 84f 84f
6:08 13 18 mph 1015.8mb 84f 83f
5:08 16 20 mph 1015.9mb 84f 84f
4:08 16 18 mph 1016.1mb 84f 84f
3:08 13 18 mph 1016.6mb 84f 85f
2:08 13 16 mph 1016.8mb 84f 83f
1:08 11 16 mph 1017.2mb 84f 83f
12:08 11 16 mph 1017.7mb 84f 82f
11:08 9 13 mph 1018mb 84f 81f
10:08 9 11 mph 1017.6mb 84f 80f
9:08 13 18 mph 1017.4mb 84f 80f
8:08 11 13 mph 1017.3mb 83f 80f
7:08 9 11 mph 1017.2mb 83f 83f
6:08 9 11 mph 1017.1mb 83f 83f
5:08 9 13 mph 1016.7mb 83f 83f
4:08 9 13 mph 1016.8mb 83f 83f
3:08 9 13 mph 1017.3mb 84f 83f
2:08 13 16 mph 1017.4mb 84f 84f
1:08 13 20 mph 1017.3mb 84f 83f
12:08 16 20 mph 1017.6mb 84f 84f
ven. 07/22 11:08 13 20 mph 1017.9mb 84f 83f
10:08 13 18 mph 1017.7mb 85f 83f
9:08 9 13 mph 1017.6mb 85f 84f
8:08 9 13 mph 1017.4mb 85f 84f
7:08 9 13 mph 1017.2mb 85f 85f
6:08 11 13 mph 1017.5mb 85f 84f
5:08 11 13 mph 1018.2mb 85f 84f
4:08 9 13 mph 1019.1mb 85f 84f
2:08 9 11 mph 1020.4mb 85f 83f
1:08 7 9 mph 1020.7mb 85f 84f
12:08 2 4 mph 1020.7mb 84f 85f
11:08 4 7 mph 1020.8mb 84f 83f
10:08 2 4 mph 1020.4mb 83f 82f
9:08 4 7 mph 1020.1mb 83f 81f
8:08 4 7 mph 1020.2mb 83f 81f
7:08 4 7 mph 1020.6mb 83f 81f
6:08 2 7 mph 1020.3mb 83f 81f
5:08 2 4 mph 1020.2mb 83f 81f
4:08 4 7 mph 1020.1mb 83f 81f
3:08 4 9 mph 1019.9mb 83f 81f
2:08 4 9 mph 1020.6mb 84f 81f
1:08 4 9 mph 1021.2mb 84f 83f
12:08 2 4 mph 1021.5mb 84f 83f
jeu. 07/21 11:08 4 7 mph 1021.5mb 84f 83f
10:08 4 9 mph 1021.4mb 84f 83f
9:08 7 9 mph 1020.9mb 84f 83f
8:08 7 9 mph 1020.2mb 85f 83f
7:08 7 11 mph 1019.9mb 85f 84f
6:08 7 9 mph 1019.6mb 85f 84f
5:08 7 11 mph 1020.3mb 85f 84f
4:08 7 9 mph 1021mb 84f 84f
3:08 7 9 mph 1021.4mb 84f 84f